DAOR/CBH METAR and TAF weather

Enter ICAO airport designator
Station Type Date Time Source
DAOR METAR 2020/02/16 20:00 UTC NOAA

DAOR 162000Z 18002KT CAVOK 20/M04 Q1029


Station Type Date Time Source
DAOR Decoded METAR 2020/02/16 20:00 UTC NOAA

Bechar, Algeria (DAOR) 31-37N 002-14W 773M
Feb 16, 2020 - 03:00 PM EST / 2020.02.16 2000 UTC
Wind: from the S (180 degrees) at 2 MPH (2 KT):0
Visibility: greater than 7 mile(s):0
Temperature: 68 F (20 C)
Dew Point: 24 F (-4 C)
Relative Humidity: 19%
Pressure (altimeter): 30.39 in. Hg (1029 hPa)
ob: DAOR 162000Z 18002KT CAVOK 20/M04 Q1029
cycle: 20

Station Type Date Time Source
DAOR TAF 2017/11/09 18:03 UTC NOAA

TAF DAOR 091700Z 0918/1009 35010KT 6000 FEW033 SCT100
TEMPO 0918/0924 3000 BLSA PROB40
TEMPO 0918/0924 35020G35KT 2000 -TSRA FEW030CB

Example: see airport list